createdAt,value
2022-09-20T00:01:32.622Z,1.93
2022-09-20T00:04:05.349Z,1.53
2022-09-20T00:06:34.218Z,1.73
2022-09-20T00:09:01.359Z,1.70
2022-09-20T00:11:32.271Z,1.60
2022-09-20T00:14:01.357Z,1.67
2022-09-20T00:16:32.664Z,1.67
2022-09-20T00:19:04.005Z,1.70
2022-09-20T00:21:33.316Z,2.10
2022-09-20T00:24:01.661Z,2.07
2022-09-20T00:26:31.373Z,1.70
2022-09-20T00:28:59.203Z,1.80
2022-09-20T00:31:26.830Z,2.00
2022-09-20T00:34:17.373Z,1.90
2022-09-20T00:36:47.255Z,2.47
2022-09-20T00:39:19.758Z,2.20
2022-09-20T00:41:47.191Z,2.00
2022-09-20T00:44:42.562Z,2.17
2022-09-20T00:47:48.916Z,1.87
2022-09-20T00:50:24.374Z,2.37
2022-09-20T00:53:04.385Z,1.70
2022-09-20T00:55:33.298Z,1.83
2022-09-20T00:58:01.403Z,2.07
2022-09-20T01:00:28.908Z,2.10
2022-09-20T01:03:04.323Z,2.20
2022-09-20T01:05:31.212Z,2.40
2022-09-20T01:07:58.332Z,2.53
2022-09-20T01:10:25.282Z,2.17
2022-09-20T01:12:54.129Z,2.13
2022-09-20T01:15:24.001Z,2.30
2022-09-20T01:17:55.117Z,2.93
2022-09-20T01:20:38.937Z,2.20
2022-09-20T01:23:47.383Z,2.20
2022-09-20T01:26:54.150Z,2.60
2022-09-20T01:29:59.865Z,2.10
2022-09-20T01:32:44.249Z,2.13
2022-09-20T01:35:12.572Z,2.03
2022-09-20T01:38:09.508Z,2.50
2022-09-20T01:40:48.207Z,2.30
2022-09-20T01:43:53.206Z,2.20
2022-09-20T01:46:35.750Z,2.23
2022-09-20T01:49:42.073Z,2.17
2022-09-20T01:52:27.438Z,2.10
2022-09-20T01:55:24.287Z,1.80
2022-09-20T01:58:41.748Z,1.83
2022-09-20T02:01:52.515Z,1.93
2022-09-20T02:04:45.898Z,1.87
2022-09-20T02:07:29.814Z,1.97
2022-09-20T02:10:41.807Z,2.07
2022-09-20T02:13:30.170Z,2.30
2022-09-20T02:16:06.061Z,3.23
2022-09-20T02:19:06.564Z,2.43
2022-09-20T02:21:52.635Z,1.73
2022-09-20T02:24:50.167Z,2.00
2022-09-20T02:27:58.081Z,1.90
2022-09-20T02:30:49.735Z,2.50
2022-09-20T02:34:03.649Z,1.73
2022-09-20T02:37:02.709Z,2.40
2022-09-20T02:39:57.903Z,1.80
2022-09-20T02:42:41.600Z,2.03
2022-09-20T02:45:26.595Z,1.57
2022-09-20T02:48:00.471Z,2.17
2022-09-20T02:50:51.972Z,2.00
2022-09-20T02:54:01.491Z,2.03
2022-09-20T02:57:02.425Z,1.93
2022-09-20T03:00:22.215Z,2.37
2022-09-20T03:03:22.312Z,2.53
2022-09-20T03:06:11.392Z,2.57
2022-09-20T03:09:06.920Z,2.80
2022-09-20T03:12:19.115Z,2.80
2022-09-20T03:15:42.818Z,3.40
2022-09-20T03:18:19.900Z,3.10
2022-09-20T03:21:08.351Z,2.97
2022-09-20T03:24:04.308Z,3.13
2022-09-20T03:26:56.535Z,3.33
2022-09-20T03:29:50.282Z,3.13
2022-09-20T03:32:32.123Z,3.20
2022-09-20T03:35:29.828Z,3.57
2022-09-20T03:38:22.506Z,3.73
2022-09-20T03:41:21.022Z,3.63
2022-09-20T03:43:56.743Z,3.70
2022-09-20T03:46:29.475Z,4.33
2022-09-20T03:49:05.279Z,4.40
2022-09-20T03:52:33.106Z,4.13
2022-09-20T03:55:13.991Z,4.50
2022-09-20T03:58:31.561Z,4.77
2022-09-20T04:01:16.401Z,5.00
2022-09-20T04:04:06.712Z,5.07
2022-09-20T04:07:14.623Z,5.17
2022-09-20T04:10:19.634Z,5.10
2022-09-20T04:13:35.066Z,5.80
2022-09-20T04:16:35.263Z,5.60
2022-09-20T04:19:37.770Z,5.20
2022-09-20T04:22:07.477Z,4.70
2022-09-20T04:24:59.166Z,5.23
2022-09-20T04:27:37.766Z,5.30
2022-09-20T04:30:26.906Z,5.63
2022-09-20T04:33:00.436Z,6.13
2022-09-20T04:36:29.167Z,5.10
2022-09-20T04:39:30.384Z,5.23
2022-09-20T04:42:45.350Z,5.90
2022-09-20T04:45:53.693Z,4.50
2022-09-20T04:48:59.044Z,5.80
2022-09-20T04:52:05.912Z,5.53
2022-09-20T04:55:15.899Z,5.30
2022-09-20T04:58:36.981Z,5.40
2022-09-20T05:01:48.201Z,6.83
2022-09-20T05:05:16.186Z,6.00
2022-09-20T05:08:40.621Z,6.73
2022-09-20T05:11:43.172Z,7.20
2022-09-20T05:14:52.611Z,7.07
2022-09-20T05:17:25.520Z,7.83
2022-09-20T05:20:02.805Z,8.53
2022-09-20T05:23:03.309Z,8.87
2022-09-20T05:26:03.406Z,9.00
2022-09-20T05:29:22.828Z,8.80
2022-09-20T05:32:44.963Z,8.63
2022-09-20T05:35:23.096Z,8.13
2022-09-20T05:38:47.672Z,7.23
2022-09-20T05:41:43.164Z,7.80
2022-09-20T05:44:59.796Z,7.70
2022-09-20T05:47:50.001Z,7.57
2022-09-20T05:50:46.355Z,6.70
2022-09-20T05:54:01.479Z,7.23
2022-09-20T05:57:07.460Z,6.30
2022-09-20T06:00:13.438Z,6.23
2022-09-20T06:03:27.211Z,5.90
2022-09-20T06:06:29.096Z,5.63
2022-09-20T06:09:09.140Z,5.40
2022-09-20T06:12:27.141Z,6.00
2022-09-20T06:15:11.823Z,6.10
2022-09-20T06:17:55.351Z,5.87
2022-09-20T06:21:01.702Z,5.53
2022-09-20T06:23:31.178Z,6.20
2022-09-20T06:26:25.179Z,6.03
2022-09-20T06:28:58.694Z,5.77
2022-09-20T06:31:26.856Z,6.70
2022-09-20T06:34:00.345Z,7.20
2022-09-20T06:36:56.152Z,6.27
2022-09-20T06:40:17.994Z,6.60
2022-09-20T06:42:47.723Z,5.63
2022-09-20T06:45:14.892Z,5.60
2022-09-20T06:47:41.913Z,5.67
2022-09-20T06:50:17.140Z,5.07
2022-09-20T06:52:45.615Z,5.10
2022-09-20T06:55:29.553Z,4.97
2022-09-20T06:57:57.221Z,4.87
2022-09-20T07:00:24.480Z,5.20
2022-09-20T07:02:51.291Z,4.80
2022-09-20T07:05:21.925Z,5.30
2022-09-20T07:07:49.079Z,4.80
2022-09-20T07:10:16.885Z,4.17
2022-09-20T07:12:43.715Z,4.83
2022-09-20T07:15:11.049Z,4.60
2022-09-20T07:17:38.098Z,4.73
2022-09-20T07:20:05.777Z,4.80
2022-09-20T07:22:33.150Z,4.43
2022-09-20T07:25:02.386Z,4.57
2022-09-20T07:27:30.602Z,4.77
2022-09-20T07:29:57.579Z,5.40
2022-09-20T07:32:24.325Z,4.67
2022-09-20T07:34:51.204Z,4.83
2022-09-20T07:37:19.293Z,4.80
2022-09-20T07:39:49.045Z,5.13
2022-09-20T07:42:16.202Z,5.03
2022-09-20T07:44:43.334Z,5.53
2022-09-20T07:47:11.243Z,5.73
2022-09-20T07:49:38.097Z,5.50
2022-09-20T07:52:07.325Z,6.53
2022-09-20T07:54:34.394Z,6.20
2022-09-20T07:57:01.473Z,6.10
2022-09-20T07:59:31.879Z,5.87
2022-09-20T08:02:00.652Z,6.47
2022-09-20T08:04:27.874Z,7.07
2022-09-20T08:06:55.098Z,7.33
2022-09-20T08:09:21.911Z,7.03
2022-09-20T08:11:49.413Z,7.10
2022-09-20T08:14:18.307Z,6.60
2022-09-20T08:16:48.574Z,7.00
2022-09-20T08:19:22.833Z,6.20
2022-09-20T08:21:53.261Z,6.07
2022-09-20T08:24:26.092Z,6.43
2022-09-20T08:26:55.305Z,6.13
2022-09-20T08:29:22.221Z,6.77
2022-09-20T08:31:49.114Z,7.43
2022-09-20T08:34:17.672Z,7.17
2022-09-20T08:36:48.630Z,6.03
2022-09-20T08:42:33.042Z,5.70
2022-09-20T08:45:21.848Z,4.80
2022-09-20T08:47:58.462Z,4.03
2022-09-20T08:50:26.883Z,3.78
2022-09-20T08:53:00.723Z,3.85
2022-09-20T08:55:39.720Z,3.47
2022-09-20T08:58:13.348Z,4.30
2022-09-20T09:00:44.074Z,3.50
2022-09-20T09:03:17.522Z,3.78
2022-09-20T09:05:50.769Z,4.20
2022-09-20T09:08:27.200Z,3.60
2022-09-20T09:10:57.519Z,2.88
2022-09-20T09:13:45.294Z,2.80
2022-09-20T09:16:23.064Z,2.45
2022-09-20T09:18:53.478Z,2.50
2022-09-20T09:21:30.485Z,2.78
2022-09-20T09:24:09.391Z,2.40
2022-09-20T09:26:40.032Z,2.55
2022-09-20T09:29:24.107Z,3.00
2022-09-20T09:31:54.770Z,2.97
2022-09-20T09:34:35.253Z,2.78
2022-09-20T09:37:02.417Z,2.63
2022-09-20T09:39:38.269Z,3.05
2022-09-20T09:42:28.773Z,3.22
2022-09-20T09:45:12.514Z,2.97
2022-09-20T09:47:39.311Z,2.75
2022-09-20T09:50:21.067Z,2.50
2022-09-20T09:53:16.501Z,2.10
2022-09-20T09:55:56.019Z,2.45
2022-09-20T09:58:54.842Z,2.38
2022-09-20T10:01:59.039Z,2.28
2022-09-20T10:04:46.059Z,2.25
2022-09-20T10:07:45.908Z,2.72
2022-09-20T10:10:27.383Z,2.70
2022-09-20T10:13:27.014Z,2.33
2022-09-20T10:16:13.517Z,1.90
2022-09-20T10:19:06.340Z,2.38
2022-09-20T10:21:56.267Z,2.00
2022-09-20T10:24:51.478Z,1.70
2022-09-20T10:28:10.645Z,2.10
2022-09-20T10:31:12.516Z,2.22
2022-09-20T10:34:39.422Z,2.38
2022-09-20T10:37:38.051Z,2.30
2022-09-20T10:40:52.550Z,1.60
2022-09-20T10:43:47.840Z,2.10
2022-09-20T10:46:47.742Z,1.90
2022-09-20T10:49:23.874Z,1.77
2022-09-20T10:52:20.741Z,2.22
2022-09-20T10:55:32.790Z,2.10
2022-09-20T10:58:03.378Z,2.72
2022-09-20T11:00:56.225Z,2.25
2022-09-20T11:04:06.886Z,2.10
2022-09-20T11:07:05.665Z,1.60
2022-09-20T11:09:40.686Z,1.70
2022-09-20T11:12:50.901Z,2.05
2022-09-20T11:15:34.463Z,1.50
2022-09-20T11:18:23.087Z,1.60
2022-09-20T11:21:17.759Z,1.50
2022-09-20T11:23:57.486Z,1.20
2022-09-20T11:26:57.947Z,1.65
2022-09-20T11:29:37.469Z,1.30
2022-09-20T11:32:17.355Z,1.75
2022-09-20T11:34:56.910Z,1.63
2022-09-20T11:37:33.372Z,1.40
2022-09-20T11:40:31.330Z,1.52
2022-09-20T11:43:06.128Z,1.50
2022-09-20T11:45:39.025Z,1.33
2022-09-20T11:48:26.403Z,1.58
2022-09-20T11:51:14.595Z,1.50
2022-09-20T11:54:06.351Z,1.40
2022-09-20T11:56:34.670Z,1.27
2022-09-20T11:59:19.491Z,1.70
2022-09-20T12:01:46.440Z,1.00
2022-09-20T12:04:33.692Z,1.60
2022-09-20T12:07:39.865Z,1.30
2022-09-20T12:10:23.982Z,1.60
2022-09-20T12:13:00.074Z,1.60
2022-09-20T12:15:39.195Z,1.77
2022-09-20T12:18:28.074Z,1.37
2022-09-20T12:21:07.239Z,1.48
2022-09-20T12:23:42.549Z,1.20
2022-09-20T12:26:21.922Z,1.50
2022-09-20T12:29:04.648Z,1.20
2022-09-20T12:31:32.413Z,1.50
2022-09-20T12:34:13.261Z,1.80
2022-09-20T12:36:43.122Z,1.50
2022-09-20T12:39:17.530Z,1.17
2022-09-20T12:42:00.181Z,1.30
2022-09-20T12:44:41.660Z,1.30
2022-09-20T12:47:11.206Z,1.40
2022-09-20T12:50:04.241Z,1.40
2022-09-20T12:52:57.734Z,1.03
2022-09-20T12:55:32.031Z,1.40
2022-09-20T12:58:18.152Z,1.67
2022-09-20T13:00:59.441Z,1.40
2022-09-20T13:03:38.261Z,1.60
2022-09-20T13:06:12.180Z,1.87
2022-09-20T13:08:49.600Z,1.67
2022-09-20T13:11:41.375Z,1.77
2022-09-20T13:14:08.165Z,1.80
2022-09-20T13:16:37.751Z,1.70
2022-09-20T13:19:22.281Z,1.90
2022-09-20T13:22:00.621Z,1.70
2022-09-20T13:24:49.253Z,1.43
2022-09-20T13:27:28.972Z,2.23
2022-09-20T13:29:55.991Z,1.83
2022-09-20T13:32:31.146Z,1.50
2022-09-20T13:35:13.102Z,1.50
2022-09-20T13:38:06.981Z,1.67
2022-09-20T13:40:49.274Z,1.47
2022-09-20T13:43:46.615Z,1.70
2022-09-20T13:46:23.490Z,1.70
2022-09-20T13:49:10.444Z,1.50
2022-09-20T13:51:37.218Z,1.80
2022-09-20T13:54:28.513Z,1.57
2022-09-20T13:57:00.140Z,1.20
2022-09-20T13:59:42.209Z,1.40
2022-09-20T14:02:22.798Z,1.57
2022-09-20T14:04:54.543Z,1.40
2022-09-20T14:07:25.836Z,1.80
2022-09-20T14:09:54.110Z,1.67
2022-09-20T14:12:23.848Z,1.47
2022-09-20T14:14:51.799Z,1.80
2022-09-20T14:17:24.362Z,16.00
2022-09-20T14:19:54.792Z,1.87
2022-09-20T14:22:29.094Z,1.90
2022-09-20T14:25:20.090Z,2.23
2022-09-20T14:27:46.858Z,3.00
2022-09-20T14:30:35.189Z,1.60
2022-09-20T14:33:07.352Z,1.80
2022-09-20T14:35:34.294Z,1.80
2022-09-20T14:38:08.620Z,1.40
2022-09-20T14:40:50.096Z,1.60
2022-09-20T14:43:31.877Z,1.50
2022-09-20T14:46:15.232Z,1.30
2022-09-20T14:48:42.891Z,1.50
2022-09-20T14:51:16.230Z,1.30
2022-09-20T14:53:50.931Z,1.40
2022-09-20T14:56:33.735Z,2.60
2022-09-20T14:59:04.658Z,1.67
2022-09-20T15:01:32.407Z,1.80
2022-09-20T15:04:05.768Z,1.40
2022-09-20T15:06:41.838Z,1.93
2022-09-20T15:09:14.331Z,2.07
2022-09-20T15:11:41.375Z,1.40
2022-09-20T15:14:08.655Z,1.23
2022-09-20T15:16:35.656Z,1.53
2022-09-20T15:19:02.837Z,1.70
2022-09-20T15:21:30.222Z,9.37
2022-09-20T15:23:57.104Z,1.90
2022-09-20T15:26:23.875Z,1.57
2022-09-20T15:28:50.637Z,1.90
2022-09-20T15:31:19.336Z,1.27
2022-09-20T15:33:46.191Z,1.63
2022-09-20T15:36:12.946Z,1.50
2022-09-20T15:38:39.805Z,1.90
2022-09-20T15:41:07.651Z,1.40
2022-09-20T15:43:34.518Z,1.40
2022-09-20T15:46:26.622Z,1.73
2022-09-20T15:48:59.157Z,1.50
2022-09-20T15:51:26.976Z,1.60
2022-09-20T15:54:03.454Z,2.13
2022-09-20T15:56:36.296Z,1.73
2022-09-20T15:59:09.019Z,1.63
2022-09-20T16:01:48.171Z,1.63
2022-09-20T16:04:20.250Z,1.77
2022-09-20T16:06:51.122Z,1.47
2022-09-20T16:09:19.414Z,1.60
2022-09-20T16:11:47.538Z,1.43
2022-09-20T16:14:15.073Z,1.37
2022-09-20T16:16:42.030Z,1.97
2022-09-20T16:19:17.919Z,2.00
2022-09-20T16:21:57.830Z,1.90
2022-09-20T16:24:31.890Z,1.57
2022-09-20T16:27:01.145Z,1.53
2022-09-20T16:29:30.058Z,1.93
2022-09-20T16:31:58.663Z,1.60
2022-09-20T16:34:30.548Z,1.80
2022-09-20T16:37:04.127Z,1.57
2022-09-20T16:39:31.754Z,1.83
2022-09-20T16:42:04.380Z,1.90
2022-09-20T16:44:33.642Z,1.70
2022-09-20T16:47:01.041Z,1.43
2022-09-20T16:49:28.696Z,1.73
2022-09-20T16:51:55.805Z,1.57
2022-09-20T16:54:22.957Z,1.37
2022-09-20T16:56:52.756Z,1.70
2022-09-20T16:59:24.075Z,1.90
2022-09-20T17:01:51.490Z,2.33
2022-09-20T17:04:20.194Z,2.27
2022-09-20T17:06:49.637Z,2.20
2022-09-20T17:09:17.349Z,2.03
2022-09-20T17:11:50.313Z,1.77
2022-09-20T17:14:20.476Z,2.60
2022-09-20T17:16:50.287Z,2.23
2022-09-20T17:19:20.558Z,1.80
2022-09-20T17:21:50.621Z,1.93
2022-09-20T17:24:22.850Z,2.43
2022-09-20T17:26:51.617Z,1.90
2022-09-20T17:29:20.792Z,2.30
2022-09-20T17:31:55.679Z,4.13
2022-09-20T17:34:25.066Z,4.83
2022-09-20T17:36:53.248Z,4.10
2022-09-20T17:39:20.158Z,3.90
2022-09-20T17:41:49.387Z,2.80
2022-09-20T17:44:16.787Z,2.60
2022-09-20T17:46:54.308Z,3.27
2022-09-20T17:49:23.640Z,3.40
2022-09-20T17:51:56.012Z,3.63
2022-09-20T17:54:24.341Z,3.67
2022-09-20T17:56:55.764Z,2.80
2022-09-20T17:59:23.300Z,3.10
2022-09-20T18:01:52.067Z,3.53
2022-09-20T18:04:21.410Z,2.73
2022-09-20T18:06:51.388Z,3.30
2022-09-20T18:09:22.845Z,4.27
2022-09-20T18:11:53.073Z,4.80
2022-09-20T18:14:27.537Z,4.57
2022-09-20T18:17:03.053Z,5.00
2022-09-20T18:19:33.741Z,5.00
2022-09-20T18:22:02.737Z,5.10
2022-09-20T18:24:30.848Z,5.40
2022-09-20T18:26:57.738Z,4.33
2022-09-20T18:29:25.083Z,4.00
2022-09-20T18:31:57.821Z,2.90
2022-09-20T18:34:31.142Z,2.43
2022-09-20T18:37:02.976Z,3.93
2022-09-20T18:39:36.005Z,3.53
2022-09-20T18:42:04.501Z,3.97
2022-09-20T18:44:34.623Z,3.17
2022-09-20T18:47:03.689Z,3.57
2022-09-20T18:49:32.346Z,3.87
2022-09-20T18:52:03.011Z,4.07
2022-09-20T18:54:33.649Z,3.30
2022-09-20T18:57:02.175Z,3.60
2022-09-20T18:59:29.337Z,3.67
2022-09-20T19:03:00.288Z,3.43
2022-09-20T19:05:51.628Z,3.60
2022-09-20T19:08:39.107Z,5.10
2022-09-20T19:11:20.899Z,4.27
2022-09-20T19:14:03.045Z,3.57
2022-09-20T19:16:36.780Z,3.33
2022-09-20T19:19:34.654Z,4.90
2022-09-20T19:22:29.081Z,3.43
2022-09-20T19:25:28.520Z,3.53
2022-09-20T19:27:55.506Z,4.77
2022-09-20T19:30:22.948Z,3.70
2022-09-20T19:32:50.444Z,3.47
2022-09-20T19:35:28.669Z,3.23
2022-09-20T19:38:15.432Z,3.70
2022-09-20T19:41:00.857Z,3.83
2022-09-20T19:44:02.403Z,4.17
2022-09-20T19:46:44.444Z,3.00
2022-09-20T19:49:47.587Z,3.47
2022-09-20T19:52:14.747Z,3.20
2022-09-20T19:54:46.986Z,2.97
2022-09-20T19:57:46.835Z,3.27
2022-09-20T20:00:20.413Z,3.17
2022-09-20T20:02:48.254Z,2.80
2022-09-20T20:05:21.368Z,3.10
2022-09-20T20:08:11.343Z,6.27
2022-09-20T20:11:05.017Z,13.17
2022-09-20T20:14:14.086Z,15.37
2022-09-20T20:17:24.344Z,12.27
2022-09-20T20:20:27.673Z,8.43
2022-09-20T20:24:08.965Z,8.03
2022-09-20T20:26:35.956Z,5.43
2022-09-20T20:29:02.742Z,6.77
2022-09-20T20:31:30.321Z,5.30
2022-09-20T20:33:57.243Z,5.20
2022-09-20T20:36:24.017Z,4.77
2022-09-20T20:38:53.011Z,4.33
2022-09-20T20:41:21.767Z,5.13
2022-09-20T20:43:56.099Z,5.00
2022-09-20T20:46:23.967Z,5.40
2022-09-20T20:48:50.888Z,5.67
2022-09-20T20:51:20.807Z,5.20
2022-09-20T20:53:53.794Z,5.47
2022-09-20T20:56:27.638Z,5.70
2022-09-20T20:59:00.405Z,6.07
2022-09-20T21:01:32.422Z,5.10
2022-09-20T21:04:00.262Z,5.57
2022-09-20T21:06:31.966Z,5.03
2022-09-20T21:08:59.022Z,5.07
2022-09-20T21:11:36.731Z,5.37
2022-09-20T21:14:07.126Z,4.97
2022-09-20T21:16:42.637Z,5.40
2022-09-20T21:19:14.681Z,6.33
2022-09-20T21:21:44.612Z,4.80
2022-09-20T21:24:15.269Z,5.93
2022-09-20T21:26:42.041Z,5.13
2022-09-20T21:29:11.930Z,5.17
2022-09-20T21:31:45.558Z,4.83
2022-09-20T21:34:15.328Z,5.00
2022-09-20T21:36:44.120Z,4.77
2022-09-20T21:39:11.794Z,4.70
2022-09-20T21:41:40.334Z,4.23
2022-09-20T21:44:11.273Z,4.73
2022-09-20T21:46:41.455Z,4.77
2022-09-20T21:49:11.632Z,4.13
2022-09-20T21:51:41.987Z,4.27
2022-09-20T21:54:09.824Z,4.13
2022-09-20T21:56:41.185Z,4.17
2022-09-20T21:59:10.215Z,3.97
2022-09-20T22:01:40.219Z,3.70
2022-09-20T22:04:12.228Z,4.03
2022-09-20T22:06:42.551Z,4.20
2022-09-20T22:09:15.405Z,4.10
2022-09-20T22:11:49.194Z,5.43
2022-09-20T22:14:19.445Z,3.70
2022-09-20T22:16:48.194Z,4.13
2022-09-20T22:19:17.511Z,3.77
2022-09-20T22:21:49.877Z,4.60
2022-09-20T22:24:17.810Z,4.63
2022-09-20T22:26:49.555Z,4.30
2022-09-20T22:29:17.532Z,4.33
2022-09-20T22:31:47.204Z,4.00
2022-09-20T22:34:22.378Z,4.43
2022-09-20T22:36:49.949Z,3.93
2022-09-20T22:39:17.789Z,4.23
2022-09-20T22:41:47.706Z,4.20
2022-09-20T22:44:14.897Z,4.50
2022-09-20T22:46:41.959Z,4.17
2022-09-20T22:49:09.698Z,4.83
2022-09-20T22:51:37.461Z,4.77
2022-09-20T22:54:08.501Z,4.90
2022-09-20T22:56:36.409Z,4.43
2022-09-20T22:59:14.343Z,4.10
2022-09-20T23:01:45.157Z,3.87
2022-09-20T23:04:16.475Z,3.90
2022-09-20T23:06:54.460Z,3.63
2022-09-20T23:09:24.705Z,3.93
2022-09-20T23:11:51.837Z,3.67
2022-09-20T23:14:21.353Z,3.60
2022-09-20T23:16:49.011Z,3.07
2022-09-20T23:19:16.901Z,2.83
2022-09-20T23:21:44.522Z,2.60
2022-09-20T23:24:14.081Z,2.90
2022-09-20T23:26:42.536Z,3.00
2022-09-20T23:29:13.125Z,3.13
2022-09-20T23:31:45.737Z,3.20
2022-09-20T23:34:13.289Z,2.80
2022-09-20T23:36:42.425Z,2.70
2022-09-20T23:39:11.071Z,2.87
2022-09-20T23:41:38.642Z,2.87
2022-09-20T23:44:06.521Z,3.30
2022-09-20T23:46:33.810Z,2.77
2022-09-20T23:49:00.720Z,3.03
2022-09-20T23:51:29.405Z,3.30
2022-09-20T23:53:56.817Z,3.73
2022-09-20T23:56:24.237Z,3.87
2022-09-20T23:58:51.265Z,3.10
